Berriatua, Spain
Current Conditions -  °F | °C
As of 6:30 PM on Friday 21 Nov 2014 (Local Time) from LEBB Reporting Station
Clear Clear  
Wind Chill: 64°   Ceiling: Unl
Heat Index: 64°   Visibility: 6mi
Dew Point: 52°   Wind: 9mph
Humidity: 64%   Direction: 120°ESE
Pressure: 29.94"   Gusts: NA
Location:  43.32°N, 2.47°W
Report Text: LEBB 211730Z 12008KT 070V160 CAVOK 18/11 Q1014 NOSIG
Loading
Personal Weather Stations






























Interactive Weather Map New forecast layout! Learn more

10-Day Weather Forecast

Advertisements
Track Severe Weather on mobile